createdAt,value
2023-01-19T00:02:42.059Z,11.50
2023-01-19T00:07:44.268Z,11.43
2023-01-19T00:12:46.443Z,10.85
2023-01-19T00:17:48.595Z,10.80
2023-01-19T00:22:51.159Z,10.18
2023-01-19T00:27:53.269Z,10.20
2023-01-19T00:32:55.723Z,10.45
2023-01-19T00:37:58.656Z,9.20
2023-01-19T00:43:01.238Z,8.68
2023-01-19T00:48:03.949Z,10.52
2023-01-19T00:53:06.147Z,9.27
2023-01-19T00:58:08.246Z,7.95
2023-01-19T01:03:10.734Z,7.62
2023-01-19T01:08:12.804Z,7.30
2023-01-19T01:13:20.861Z,7.10
2023-01-19T01:18:25.945Z,7.10
2023-01-19T01:23:28.058Z,6.87
2023-01-19T01:28:31.628Z,6.20
2023-01-19T01:33:40.939Z,6.35
2023-01-19T01:38:43.771Z,5.47
2023-01-19T01:43:58.501Z,5.07
2023-01-19T01:49:15.784Z,5.22
2023-01-19T01:54:30.901Z,4.72
2023-01-19T01:59:39.363Z,4.55
2023-01-19T02:04:47.305Z,4.40
2023-01-19T02:10:08.257Z,3.63
2023-01-19T02:15:18.426Z,3.47
2023-01-19T02:20:24.120Z,3.12
2023-01-19T02:25:26.943Z,2.80
2023-01-19T02:30:29.658Z,2.40
2023-01-19T02:35:32.428Z,2.33
2023-01-19T02:40:36.953Z,2.40
2023-01-19T02:45:39.603Z,1.98
2023-01-19T02:50:49.501Z,1.80
2023-01-19T02:56:04.870Z,1.90
2023-01-19T03:01:24.110Z,1.90
2023-01-19T03:06:41.417Z,1.33
2023-01-19T03:11:50.300Z,1.42
2023-01-19T03:16:57.331Z,1.33
2023-01-19T03:22:03.946Z,1.40
2023-01-19T03:27:18.355Z,1.10
2023-01-19T03:32:26.036Z,1.40
2023-01-19T03:37:30.438Z,1.00
2023-01-19T03:42:33.269Z,1.40
2023-01-19T03:47:36.409Z,1.00
2023-01-19T03:52:38.912Z,0.90
2023-01-19T03:57:41.073Z,1.10
2023-01-19T04:02:43.186Z,0.80
2023-01-19T04:07:47.782Z,0.90
2023-01-19T04:12:49.876Z,0.90
2023-01-19T04:17:52.178Z,0.70
2023-01-19T04:22:56.703Z,0.65
2023-01-19T04:27:58.855Z,0.50
2023-01-19T04:33:01.317Z,0.70
2023-01-19T04:38:03.773Z,0.60
2023-01-19T04:43:05.992Z,0.60
2023-01-19T04:48:08.683Z,0.60
2023-01-19T04:53:12.379Z,0.50
2023-01-19T04:58:15.197Z,0.40
2023-01-19T05:03:17.347Z,0.40
2023-01-19T05:08:19.523Z,0.50
2023-01-19T05:13:21.666Z,0.50
2023-01-19T05:18:23.779Z,0.60
2023-01-19T05:23:25.807Z,0.40
2023-01-19T05:28:32.675Z,0.40
2023-01-19T05:33:34.869Z,0.40
2023-01-19T05:38:36.956Z,0.50
2023-01-19T05:43:39.078Z,0.62
2023-01-19T05:48:41.201Z,0.60
2023-01-19T05:53:43.371Z,0.80
2023-01-19T05:58:45.496Z,0.63
2023-01-19T06:03:48.778Z,1.00
2023-01-19T06:08:50.951Z,0.60
2023-01-19T06:13:53.240Z,0.65
2023-01-19T06:18:55.885Z,0.68
2023-01-19T06:23:58.765Z,0.90
2023-01-19T06:29:01.416Z,0.98
2023-01-19T06:34:04.305Z,1.05
2023-01-19T06:39:06.433Z,1.30
2023-01-19T06:44:09.271Z,1.37
2023-01-19T06:49:11.389Z,1.47
2023-01-19T06:54:13.606Z,0.88
2023-01-19T06:59:15.798Z,1.20
2023-01-19T07:04:17.885Z,1.50
2023-01-19T07:09:20.551Z,1.77
2023-01-19T07:14:22.738Z,2.10
2023-01-19T07:19:24.987Z,1.77
2023-01-19T07:24:27.267Z,2.10
2023-01-19T07:29:29.674Z,2.30
2023-01-19T07:34:31.903Z,2.75
2023-01-19T07:39:36.603Z,2.90
2023-01-19T07:44:38.755Z,3.12
2023-01-19T07:49:40.903Z,2.95
2023-01-19T07:54:43.144Z,2.78
2023-01-19T07:59:45.362Z,2.67
2023-01-19T08:04:50.554Z,2.50
2023-01-19T08:09:52.796Z,2.72
2023-01-19T08:14:54.899Z,3.30
2023-01-19T08:19:57.332Z,3.40
2023-01-19T08:24:59.413Z,3.92
2023-01-19T08:30:01.472Z,4.30
2023-01-19T08:35:03.805Z,4.80
2023-01-19T08:40:06.646Z,4.82
2023-01-19T08:45:09.460Z,4.25
2023-01-19T08:50:12.003Z,4.78
2023-01-19T08:55:14.164Z,4.87
2023-01-19T09:00:16.733Z,4.68
2023-01-19T09:05:19.544Z,5.12
2023-01-19T09:10:21.881Z,5.85
2023-01-19T09:15:24.049Z,5.40
2023-01-19T09:20:26.291Z,5.33
2023-01-19T09:25:28.390Z,5.60
2023-01-19T09:30:30.951Z,5.95
2023-01-19T09:35:33.880Z,6.43
2023-01-19T09:40:44.920Z,7.37
2023-01-19T09:45:50.151Z,7.37
2023-01-19T09:50:55.907Z,7.60
2023-01-19T09:55:58.471Z,8.15
2023-01-19T10:01:15.025Z,9.82
2023-01-19T10:06:18.215Z,8.65
2023-01-19T10:11:34.530Z,9.53
2023-01-19T10:16:59.235Z,11.30
2023-01-19T10:22:13.269Z,11.93
2023-01-19T10:27:23.963Z,11.93
2023-01-19T10:32:30.487Z,9.77
2023-01-19T10:37:42.064Z,11.33
2023-01-19T10:42:44.241Z,9.27
2023-01-19T10:47:47.785Z,11.32
2023-01-19T10:52:55.082Z,6.78
2023-01-19T10:57:58.922Z,10.45
2023-01-19T11:03:02.091Z,8.57
2023-01-19T11:08:23.031Z,7.22
2023-01-19T11:13:25.319Z,8.93
2023-01-19T11:18:33.931Z,8.60
2023-01-19T11:23:43.053Z,8.55
2023-01-19T11:28:51.408Z,8.57
2023-01-19T11:33:56.523Z,8.07
2023-01-19T11:39:21.616Z,9.25
2023-01-19T11:44:30.091Z,9.65
2023-01-19T11:49:49.640Z,9.57
2023-01-19T11:55:17.276Z,11.00
2023-01-19T12:00:31.605Z,10.95
2023-01-19T12:05:41.249Z,11.02
2023-01-19T12:10:46.939Z,11.65
2023-01-19T12:15:55.144Z,9.35
2023-01-19T12:20:58.902Z,11.33
2023-01-19T12:26:13.105Z,10.65
2023-01-19T12:31:17.948Z,10.23
2023-01-19T12:36:40.926Z,12.25
2023-01-19T12:41:43.479Z,11.15
2023-01-19T12:46:50.200Z,10.77
2023-01-19T12:51:55.598Z,10.50
2023-01-19T12:57:01.136Z,10.55
2023-01-19T13:02:24.908Z,9.10
2023-01-19T13:07:27.109Z,10.60
2023-01-19T13:12:29.472Z,10.07
2023-01-19T13:17:36.519Z,10.30
2023-01-19T13:22:50.312Z,11.02
2023-01-19T13:27:52.568Z,10.52
2023-01-19T13:33:06.475Z,8.52
2023-01-19T13:38:14.201Z,8.83
2023-01-19T13:43:21.198Z,8.95
2023-01-19T13:48:25.086Z,10.48
2023-01-19T13:53:27.698Z,8.30
2023-01-19T13:58:31.980Z,9.18
2023-01-19T14:03:34.229Z,9.50
2023-01-19T14:08:37.052Z,8.70
2023-01-19T14:13:44.910Z,8.90
2023-01-19T14:18:59.602Z,11.20
2023-01-19T14:24:10.501Z,10.05
2023-01-19T14:29:33.777Z,13.43
2023-01-19T14:34:51.200Z,11.75
2023-01-19T14:40:08.158Z,11.15
2023-01-19T14:45:30.349Z,10.88
2023-01-19T14:50:42.840Z,9.40
2023-01-19T14:55:55.513Z,10.20
2023-01-19T15:00:58.245Z,10.43
2023-01-19T15:06:03.543Z,12.32
2023-01-19T15:11:13.856Z,13.38
2023-01-19T15:16:16.372Z,11.60
2023-01-19T15:21:21.751Z,11.90
2023-01-19T15:26:25.587Z,10.70
2023-01-19T15:31:27.910Z,9.70
2023-01-19T15:36:30.089Z,12.77
2023-01-19T15:41:32.801Z,13.70
2023-01-19T15:46:34.941Z,10.93
2023-01-19T15:51:37.125Z,12.57
2023-01-19T15:56:41.432Z,11.73
2023-01-19T16:01:43.684Z,10.30
2023-01-19T16:06:45.974Z,11.77
2023-01-19T16:11:48.173Z,13.70
2023-01-19T16:16:50.359Z,13.65
2023-01-19T16:21:52.561Z,9.90
2023-01-19T16:26:54.640Z,13.27
2023-01-19T16:31:57.288Z,14.60
2023-01-19T16:36:59.409Z,12.40
2023-01-19T16:42:01.533Z,11.38
2023-01-19T16:47:04.748Z,10.68
2023-01-19T16:52:07.497Z,11.85
2023-01-19T16:57:12.169Z,10.45
2023-01-19T17:02:14.332Z,12.70
2023-01-19T17:07:18.914Z,10.25
2023-01-19T17:12:21.451Z,9.73
2023-01-19T17:17:23.587Z,10.88
2023-01-19T17:22:25.774Z,11.93
2023-01-19T17:27:27.922Z,10.13
2023-01-19T17:32:30.027Z,10.00
2023-01-19T17:37:32.121Z,9.88
2023-01-19T17:42:38.375Z,11.30
2023-01-19T17:47:40.491Z,11.40
2023-01-19T17:52:42.896Z,11.67
2023-01-19T17:57:45.088Z,11.93
2023-01-19T18:02:52.106Z,9.95
2023-01-19T18:07:54.232Z,10.32
2023-01-19T18:12:56.277Z,10.95
2023-01-19T18:17:58.351Z,10.17
2023-01-19T18:23:00.527Z,12.23
2023-01-19T18:28:02.672Z,9.18
2023-01-19T18:33:04.788Z,8.48
2023-01-19T18:38:06.927Z,11.23
2023-01-19T18:43:10.608Z,11.40
2023-01-19T18:48:12.748Z,8.43
2023-01-19T18:53:14.841Z,11.05
2023-01-19T18:58:16.953Z,10.23
2023-01-19T19:03:20.438Z,10.48
2023-01-19T19:08:22.636Z,11.37
2023-01-19T19:13:25.450Z,8.35
2023-01-19T19:18:27.621Z,9.82
2023-01-19T19:23:30.072Z,12.88
2023-01-19T19:28:35.306Z,10.45
2023-01-19T19:33:38.285Z,10.87
2023-01-19T19:38:44.537Z,11.88
2023-01-19T19:43:46.841Z,10.70
2023-01-19T19:48:49.814Z,11.95
2023-01-19T19:53:54.222Z,12.60
2023-01-19T19:58:57.734Z,10.77
2023-01-19T20:04:05.749Z,10.07
2023-01-19T20:09:09.197Z,10.93
2023-01-19T20:14:13.536Z,9.77
2023-01-19T20:19:15.683Z,10.90
2023-01-19T20:24:19.927Z,10.50
2023-01-19T20:29:22.195Z,10.23
2023-01-19T20:34:28.192Z,7.65
2023-01-19T20:39:33.423Z,9.98
2023-01-19T20:44:35.731Z,7.22
2023-01-19T20:49:37.969Z,13.57
2023-01-19T20:54:41.114Z,11.43
2023-01-19T20:59:43.321Z,11.73
2023-01-19T21:04:45.448Z,10.90
2023-01-19T21:09:47.582Z,12.73
2023-01-19T21:14:49.758Z,12.67
2023-01-19T21:19:51.955Z,9.05
2023-01-19T21:24:54.097Z,10.48
2023-01-19T21:29:56.380Z,11.35
2023-01-19T21:34:58.471Z,9.45
2023-01-19T21:40:00.581Z,10.07
2023-01-19T21:45:02.777Z,9.93
2023-01-19T21:50:05.300Z,10.38
2023-01-19T21:55:08.127Z,10.88
2023-01-19T22:00:10.798Z,10.45
2023-01-19T22:05:13.687Z,9.77
2023-01-19T22:10:16.545Z,10.23
2023-01-19T22:15:18.910Z,10.65
2023-01-19T22:20:20.996Z,10.70
2023-01-19T22:25:27.706Z,10.88
2023-01-19T22:30:30.054Z,9.87
2023-01-19T22:35:33.337Z,10.52
2023-01-19T22:40:35.432Z,9.80
2023-01-19T22:45:41.465Z,8.98
2023-01-19T22:50:43.590Z,10.85
2023-01-19T22:55:45.693Z,10.80
2023-01-19T23:00:47.766Z,10.88
2023-01-19T23:05:49.908Z,11.57
2023-01-19T23:10:51.988Z,9.38
2023-01-19T23:15:54.146Z,10.77
2023-01-19T23:20:56.292Z,10.03
2023-01-19T23:26:16.160Z,8.68
2023-01-19T23:31:32.512Z,9.20
2023-01-19T23:36:37.000Z,9.40
2023-01-19T23:41:39.231Z,9.65
2023-01-19T23:46:42.116Z,7.00
2023-01-19T23:51:44.262Z,9.05
2023-01-19T23:56:46.398Z,9.75
